aviador You're here:

SKLT Decoded Metar

LETICIA in COLOMBIA
Report Time2017-09-25 04:00:00
UTC Time2017-09-25 04:13:29
Flight Rules vfr VFR
WindCalm
Visibility9999 m
Phenomena:N/A
Clouds:Scattered 012 Hf
Broken 080 Hf
Ceiling8,000 ft
Temp24°C (ISA +10)
Dew Point24°C (100% RH)
QNH1013 hPa
Density Alt1,775 ft
Elevation276 ft
Report Wrong Elevation
Raw Report
SKLT 250400Z 00000KT 9999 SCT012 BKN080 24/24 A2992=

Extra information for SKLT:More info

Metar Taf Metar & Taf Last 4 Metars F.Rules Stats Wind Profile Meteogram Temp Stats Airport Information Weather charts Add Link Nearby VenuesMetar ALERT Operation Metar Decoded Social comments